createdAt,value
2023-02-25T00:02:01.690Z,11.04
2023-02-25T00:04:32.013Z,10.98
2023-02-25T00:07:00.279Z,10.95
2023-02-25T00:09:29.363Z,10.92
2023-02-25T00:11:59.210Z,10.88
2023-02-25T00:14:27.382Z,10.88
2023-02-25T00:16:56.168Z,10.82
2023-02-25T00:19:25.436Z,10.77
2023-02-25T00:21:53.819Z,10.73
2023-02-25T00:24:22.098Z,10.68
2023-02-25T00:26:50.584Z,10.65
2023-02-25T00:29:20.927Z,10.60
2023-02-25T00:31:49.503Z,10.60
2023-02-25T00:34:18.397Z,10.58
2023-02-25T00:36:46.612Z,10.54
2023-02-25T00:39:16.133Z,10.52
2023-02-25T00:41:44.780Z,10.50
2023-02-25T00:44:13.244Z,10.47
2023-02-25T00:46:43.541Z,10.47
2023-02-25T00:49:16.710Z,10.43
2023-02-25T00:51:53.140Z,10.42
2023-02-25T00:54:21.554Z,10.40
2023-02-25T00:56:49.786Z,10.38
2023-02-25T00:59:18.152Z,10.37
2023-02-25T01:01:49.031Z,10.35
2023-02-25T01:04:17.238Z,10.34
2023-02-25T01:06:46.400Z,10.31
2023-02-25T01:09:15.578Z,10.29
2023-02-25T01:11:46.407Z,10.26
2023-02-25T01:14:17.730Z,10.25
2023-02-25T01:16:48.044Z,10.22
2023-02-25T01:19:18.465Z,10.20
2023-02-25T01:21:49.207Z,10.17
2023-02-25T01:24:20.887Z,10.14
2023-02-25T01:26:51.239Z,10.09
2023-02-25T01:29:21.909Z,10.06
2023-02-25T01:31:53.612Z,10.03
2023-02-25T01:34:29.034Z,10.00
2023-02-25T01:36:57.628Z,9.99
2023-02-25T01:39:27.604Z,9.99
2023-02-25T01:41:57.177Z,9.96
2023-02-25T01:44:29.967Z,9.96
2023-02-25T01:47:01.557Z,9.95
2023-02-25T01:49:34.285Z,9.92
2023-02-25T01:52:07.682Z,9.91
2023-02-25T01:54:37.301Z,9.86
2023-02-25T01:57:09.591Z,9.80
2023-02-25T01:59:41.787Z,9.81
2023-02-25T02:02:14.271Z,9.75
2023-02-25T02:04:46.964Z,9.74
2023-02-25T02:07:15.319Z,9.70
2023-02-25T02:09:56.776Z,9.64
2023-02-25T02:12:27.000Z,9.60
2023-02-25T02:14:57.191Z,9.53
2023-02-25T02:17:31.947Z,9.50
2023-02-25T02:20:15.009Z,9.45
2023-02-25T02:22:58.125Z,9.41
2023-02-25T02:26:05.708Z,9.40
2023-02-25T02:29:08.781Z,9.37
2023-02-25T02:31:57.724Z,9.36
2023-02-25T02:34:37.440Z,9.35
2023-02-25T02:37:15.270Z,9.36
2023-02-25T02:39:52.872Z,9.38
2023-02-25T02:42:32.933Z,9.39
2023-02-25T02:45:09.505Z,9.39
2023-02-25T02:47:42.023Z,9.36
2023-02-25T02:50:13.409Z,9.35
2023-02-25T02:52:45.698Z,9.34
2023-02-25T02:55:22.443Z,9.32
2023-02-25T02:57:58.159Z,9.34
2023-02-25T03:00:30.527Z,9.32
2023-02-25T03:03:05.434Z,9.31
2023-02-25T03:05:36.807Z,9.32
2023-02-25T03:08:10.872Z,9.32
2023-02-25T03:10:38.874Z,9.29
2023-02-25T03:13:07.082Z,9.33
2023-02-25T03:15:36.136Z,9.32
2023-02-25T03:18:11.357Z,9.31
2023-02-25T03:20:43.392Z,9.31
2023-02-25T03:23:16.566Z,9.32
2023-02-25T03:25:48.522Z,9.29
2023-02-25T03:28:24.890Z,9.25
2023-02-25T03:30:59.626Z,9.21
2023-02-25T03:33:34.574Z,9.18
2023-02-25T03:36:07.321Z,9.16
2023-02-25T03:38:38.806Z,9.13
2023-02-25T03:41:08.424Z,9.11
2023-02-25T03:43:43.419Z,9.07
2023-02-25T03:46:12.399Z,9.05
2023-02-25T03:48:42.932Z,9.00
2023-02-25T03:51:14.780Z,8.96
2023-02-25T03:53:42.785Z,8.92
2023-02-25T03:56:13.020Z,8.90
2023-02-25T03:58:44.875Z,8.88
2023-02-25T04:01:17.305Z,8.86
2023-02-25T04:03:47.198Z,8.84
2023-02-25T04:06:15.751Z,8.83
2023-02-25T04:08:44.104Z,8.79
2023-02-25T04:11:12.272Z,8.77
2023-02-25T04:13:40.316Z,8.74
2023-02-25T04:16:09.534Z,8.75
2023-02-25T04:18:38.206Z,8.72
2023-02-25T04:21:08.367Z,8.71
2023-02-25T04:23:37.480Z,8.69
2023-02-25T04:26:06.415Z,8.66
2023-02-25T04:28:34.427Z,8.67
2023-02-25T04:31:02.524Z,8.67
2023-02-25T04:33:31.106Z,8.65
2023-02-25T04:35:59.108Z,8.65
2023-02-25T04:38:28.667Z,8.65
2023-02-25T04:40:57.122Z,8.67
2023-02-25T04:43:25.455Z,8.66
2023-02-25T04:45:56.016Z,8.66
2023-02-25T04:48:24.531Z,8.67
2023-02-25T04:50:52.675Z,8.69
2023-02-25T04:53:20.802Z,8.66
2023-02-25T04:55:50.392Z,8.66
2023-02-25T04:58:18.354Z,8.64
2023-02-25T05:00:49.478Z,8.66
2023-02-25T05:03:17.476Z,8.64
2023-02-25T05:05:45.590Z,8.65
2023-02-25T05:08:13.716Z,8.65
2023-02-25T05:10:42.709Z,8.63
2023-02-25T05:13:12.605Z,8.64
2023-02-25T05:15:40.802Z,8.63
2023-02-25T05:18:09.373Z,8.62
2023-02-25T05:20:41.813Z,8.62
2023-02-25T05:23:10.627Z,8.62
2023-02-25T05:25:41.481Z,8.62
2023-02-25T05:28:12.124Z,8.60
2023-02-25T05:30:40.840Z,8.61
2023-02-25T05:33:09.300Z,8.59
2023-02-25T05:35:40.891Z,8.58
2023-02-25T05:38:09.216Z,8.60
2023-02-25T05:40:37.425Z,8.60
2023-02-25T05:43:05.998Z,8.58
2023-02-25T05:45:36.523Z,8.56
2023-02-25T05:48:04.714Z,8.56
2023-02-25T05:50:34.784Z,8.57
2023-02-25T05:53:02.996Z,8.56
2023-02-25T05:55:30.933Z,8.56
2023-02-25T05:57:59.276Z,8.55
2023-02-25T06:00:27.417Z,8.55
2023-02-25T06:02:56.952Z,8.54
2023-02-25T06:05:25.011Z,8.52
2023-02-25T06:07:53.180Z,8.57
2023-02-25T06:10:22.407Z,8.55
2023-02-25T06:12:50.425Z,8.55
2023-02-25T06:15:18.588Z,8.55
2023-02-25T06:17:46.694Z,8.54
2023-02-25T06:20:16.729Z,8.55
2023-02-25T06:22:47.714Z,8.52
2023-02-25T06:25:15.758Z,8.52
2023-02-25T06:27:43.794Z,8.51
2023-02-25T06:30:12.801Z,8.50
2023-02-25T06:32:40.833Z,8.48
2023-02-25T06:35:10.007Z,8.45
2023-02-25T06:37:39.586Z,8.44
2023-02-25T06:40:08.971Z,8.42
2023-02-25T06:42:37.008Z,8.42
2023-02-25T06:45:05.579Z,8.38
2023-02-25T06:47:34.065Z,8.41
2023-02-25T06:50:02.694Z,8.40
2023-02-25T06:52:30.960Z,8.40
2023-02-25T06:55:00.520Z,8.41
2023-02-25T06:57:28.520Z,8.39
2023-02-25T06:59:56.677Z,8.39
2023-02-25T07:02:24.889Z,8.36
2023-02-25T07:04:54.589Z,8.34
2023-02-25T07:07:23.225Z,8.33
2023-02-25T07:09:51.524Z,8.33
2023-02-25T07:12:21.125Z,8.30
2023-02-25T07:14:49.198Z,8.30
2023-02-25T07:17:18.488Z,8.27
2023-02-25T07:19:46.564Z,8.25
2023-02-25T07:22:16.949Z,8.22
2023-02-25T07:24:45.958Z,8.23
2023-02-25T07:27:14.957Z,8.18
2023-02-25T07:29:44.603Z,8.16
2023-02-25T07:32:12.760Z,8.16
2023-02-25T07:34:40.852Z,8.17
2023-02-25T07:37:08.869Z,8.19
2023-02-25T07:39:37.032Z,8.19
2023-02-25T07:42:05.424Z,8.19
2023-02-25T07:44:34.182Z,8.22
2023-02-25T07:47:04.617Z,8.25
2023-02-25T07:49:32.737Z,8.27
2023-02-25T07:52:01.387Z,8.31
2023-02-25T07:54:29.581Z,8.35
2023-02-25T07:56:57.739Z,8.38
2023-02-25T07:59:25.965Z,8.45
2023-02-25T08:01:54.091Z,8.50
2023-02-25T08:04:24.828Z,8.58
2023-02-25T08:06:53.188Z,8.64
2023-02-25T08:09:21.254Z,8.68
2023-02-25T08:11:49.353Z,8.76
2023-02-25T08:14:17.803Z,8.80
2023-02-25T08:16:46.110Z,8.86
2023-02-25T08:19:14.260Z,8.91
2023-02-25T08:21:43.756Z,8.98
2023-02-25T08:24:11.828Z,9.05
2023-02-25T08:26:41.229Z,9.10
2023-02-25T08:29:09.573Z,9.14
2023-02-25T08:31:37.840Z,9.21
2023-02-25T08:34:06.276Z,9.26
2023-02-25T08:36:37.527Z,9.31
2023-02-25T08:39:12.463Z,9.37
2023-02-25T08:41:42.150Z,9.44
2023-02-25T08:44:11.453Z,9.52
2023-02-25T08:46:41.032Z,9.59
2023-02-25T08:49:09.648Z,9.63
2023-02-25T08:51:41.150Z,9.71
2023-02-25T08:54:15.625Z,9.77
2023-02-25T08:56:45.130Z,9.83
2023-02-25T08:59:16.184Z,9.88
2023-02-25T09:01:49.143Z,9.94
2023-02-25T09:04:19.339Z,10.01
2023-02-25T09:06:48.777Z,10.07
2023-02-25T09:09:20.610Z,10.11
2023-02-25T09:11:50.330Z,10.17
2023-02-25T09:14:34.998Z,10.21
2023-02-25T09:17:05.141Z,10.28
2023-02-25T09:19:38.831Z,10.35
2023-02-25T09:22:07.803Z,10.42
2023-02-25T09:24:37.988Z,10.50
2023-02-25T09:27:08.276Z,10.57
2023-02-25T09:29:40.331Z,10.64
2023-02-25T09:32:17.925Z,10.70
2023-02-25T09:34:46.754Z,10.74
2023-02-25T09:37:15.191Z,10.77
2023-02-25T09:39:44.787Z,10.78
2023-02-25T09:42:18.000Z,10.79
2023-02-25T09:44:48.809Z,10.75
2023-02-25T09:47:22.744Z,10.80
2023-02-25T09:49:55.305Z,10.88
2023-02-25T09:52:28.988Z,10.90
2023-02-25T09:55:05.097Z,10.90
2023-02-25T09:57:41.529Z,10.95
2023-02-25T10:00:21.519Z,10.99
2023-02-25T10:02:55.564Z,11.04
2023-02-25T10:08:35.067Z,11.08
2023-02-25T10:11:10.192Z,11.16
2023-02-25T10:13:48.117Z,11.21
2023-02-25T10:16:38.474Z,11.27
2023-02-25T10:19:18.190Z,11.32
2023-02-25T10:22:01.026Z,11.41
2023-02-25T10:24:35.100Z,11.47
2023-02-25T10:27:17.001Z,11.55
2023-02-25T10:29:49.735Z,11.60
2023-02-25T10:32:23.362Z,11.62
2023-02-25T10:34:53.263Z,11.61
2023-02-25T10:37:27.475Z,11.68
2023-02-25T10:39:58.164Z,11.76
2023-02-25T10:42:27.980Z,11.83
2023-02-25T10:45:01.187Z,11.92
2023-02-25T10:47:35.697Z,12.03
2023-02-25T10:50:16.672Z,12.14
2023-02-25T10:52:59.467Z,12.22
2023-02-25T10:55:33.224Z,12.28
2023-02-25T10:58:05.127Z,12.33
2023-02-25T11:00:36.533Z,12.39
2023-02-25T11:03:05.954Z,12.43
2023-02-25T11:05:41.975Z,12.52
2023-02-25T11:08:28.098Z,12.63
2023-02-25T11:11:04.023Z,12.77
2023-02-25T11:13:38.848Z,12.89
2023-02-25T11:16:09.936Z,13.00
2023-02-25T11:18:39.440Z,13.07
2023-02-25T11:21:10.188Z,13.18
2023-02-25T11:23:45.439Z,13.31
2023-02-25T11:26:18.331Z,13.41
2023-02-25T11:28:51.854Z,13.50
2023-02-25T11:31:22.065Z,13.63
2023-02-25T11:33:57.401Z,13.68
2023-02-25T11:36:31.073Z,13.73
2023-02-25T11:39:08.941Z,13.81
2023-02-25T11:41:37.225Z,13.81
2023-02-25T11:44:28.952Z,13.90
2023-02-25T11:47:04.382Z,14.01
2023-02-25T11:49:52.357Z,14.18
2023-02-25T11:52:27.754Z,14.33
2023-02-25T11:55:12.820Z,14.41
2023-02-25T11:57:52.307Z,14.52
2023-02-25T12:00:27.921Z,14.66
2023-02-25T12:03:11.975Z,14.86
2023-02-25T12:05:59.834Z,14.98
2023-02-25T12:08:40.962Z,14.98
2023-02-25T12:11:45.513Z,14.86
2023-02-25T12:14:51.398Z,14.73
2023-02-25T12:17:42.413Z,14.65
2023-02-25T12:20:52.184Z,14.66
2023-02-25T12:23:54.041Z,14.68
2023-02-25T12:26:36.304Z,14.73
2023-02-25T12:29:38.591Z,14.73
2023-02-25T12:32:46.700Z,14.75
2023-02-25T12:35:39.757Z,14.78
2023-02-25T12:38:40.785Z,14.93
2023-02-25T12:41:27.090Z,15.11
2023-02-25T12:44:01.921Z,15.32
2023-02-25T12:46:49.238Z,15.46
2023-02-25T12:49:49.073Z,15.59
2023-02-25T12:52:41.180Z,15.71
2023-02-25T12:55:38.456Z,15.84
2023-02-25T12:58:24.756Z,15.98
2023-02-25T13:01:14.617Z,16.08
2023-02-25T13:04:13.603Z,16.16
2023-02-25T13:07:08.534Z,16.29
2023-02-25T13:09:47.336Z,16.33
2023-02-25T13:12:32.409Z,16.38
2023-02-25T13:15:11.472Z,16.48
2023-02-25T13:17:59.435Z,16.47
2023-02-25T13:21:12.271Z,16.44
2023-02-25T13:24:01.341Z,16.48
2023-02-25T13:26:46.435Z,16.55
2023-02-25T13:29:29.428Z,16.58
2023-02-25T13:32:19.947Z,16.51
2023-02-25T13:34:59.397Z,16.43
2023-02-25T13:37:42.972Z,16.37
2023-02-25T13:40:33.797Z,16.35
2023-02-25T13:43:35.418Z,16.30
2023-02-25T13:46:37.420Z,16.25
2023-02-25T13:49:32.561Z,16.33
2023-02-25T13:52:26.226Z,16.41
2023-02-25T13:55:25.164Z,16.41
2023-02-25T13:58:10.349Z,16.41
2023-02-25T14:01:09.199Z,16.39
2023-02-25T14:04:03.978Z,16.36
2023-02-25T14:06:48.652Z,16.37
2023-02-25T14:09:32.364Z,16.47
2023-02-25T14:12:13.328Z,16.62
2023-02-25T14:15:17.251Z,16.76
2023-02-25T14:17:59.075Z,16.83
2023-02-25T14:20:41.781Z,16.95
2023-02-25T14:23:17.674Z,17.07
2023-02-25T14:26:13.768Z,17.14
2023-02-25T14:28:55.025Z,17.17
2023-02-25T14:31:29.208Z,17.15
2023-02-25T14:34:20.033Z,17.09
2023-02-25T14:37:01.418Z,17.02
2023-02-25T14:39:45.185Z,17.10
2023-02-25T14:48:47.202Z,18.24
2023-02-25T14:52:03.083Z,18.85
2023-02-25T14:55:10.742Z,18.83
2023-02-25T14:58:38.312Z,18.47
2023-02-25T15:01:55.364Z,17.86
2023-02-25T15:19:07.342Z,15.44
2023-02-25T15:28:48.810Z,14.47
2023-02-25T15:34:23.153Z,14.25
2023-02-25T15:37:13.680Z,14.15
2023-02-25T15:39:55.391Z,14.13
2023-02-25T15:43:06.136Z,14.18
2023-02-25T15:49:45.024Z,14.36
2023-02-25T15:53:13.749Z,14.46
2023-02-25T15:59:20.916Z,14.56
2023-02-25T16:04:51.189Z,14.54
2023-02-25T16:07:29.267Z,14.47
2023-02-25T16:10:08.473Z,14.35
2023-02-25T16:12:39.891Z,14.26
2023-02-25T16:15:14.462Z,14.17
2023-02-25T16:17:59.585Z,14.12
2023-02-25T16:20:35.062Z,14.01
2023-02-25T16:23:06.036Z,13.95
2023-02-25T16:25:45.043Z,13.93
2023-02-25T16:28:26.896Z,13.93
2023-02-25T16:31:03.485Z,13.86
2023-02-25T16:33:43.053Z,13.89
2023-02-25T16:36:20.355Z,13.89
2023-02-25T16:38:58.417Z,13.91
2023-02-25T16:41:36.327Z,13.88
2023-02-25T16:44:06.985Z,13.79
2023-02-25T16:46:38.268Z,13.70
2023-02-25T16:49:10.355Z,13.56
2023-02-25T16:51:40.482Z,13.54
2023-02-25T16:54:14.797Z,13.48
2023-02-25T16:56:46.780Z,13.43
2023-02-25T16:59:22.969Z,13.39
2023-02-25T17:02:00.316Z,13.35
2023-02-25T17:04:38.013Z,13.32
2023-02-25T17:07:15.389Z,13.25
2023-02-25T17:09:54.328Z,13.21
2023-02-25T17:12:34.070Z,13.15
2023-02-25T17:15:06.539Z,13.08
2023-02-25T17:17:39.694Z,13.00
2023-02-25T17:20:17.948Z,12.95
2023-02-25T17:22:47.325Z,12.89
2023-02-25T17:25:19.410Z,12.87
2023-02-25T17:28:04.584Z,12.82
2023-02-25T17:30:43.673Z,12.81
2023-02-25T17:33:30.193Z,12.76
2023-02-25T17:36:16.344Z,12.76
2023-02-25T17:38:57.018Z,12.73
2023-02-25T17:41:27.511Z,12.66
2023-02-25T17:43:55.976Z,12.56
2023-02-25T17:46:36.434Z,12.54
2023-02-25T17:49:07.626Z,12.48
2023-02-25T17:51:39.348Z,12.41
2023-02-25T17:54:17.416Z,12.34
2023-02-25T17:56:56.383Z,12.24
2023-02-25T17:59:38.662Z,12.15
2023-02-25T18:02:32.797Z,12.03
2023-02-25T18:05:26.156Z,11.92
2023-02-25T18:08:05.639Z,11.79
2023-02-25T18:10:48.485Z,11.69
2023-02-25T18:13:34.392Z,11.54
2023-02-25T18:16:39.699Z,11.41
2023-02-25T18:19:45.848Z,11.27
2023-02-25T18:22:32.066Z,11.14
2023-02-25T18:27:44.655Z,10.99
2023-02-25T18:30:20.758Z,10.89
2023-02-25T18:32:49.435Z,10.84
2023-02-25T18:35:20.225Z,10.80
2023-02-25T18:37:52.239Z,10.77
2023-02-25T18:40:26.356Z,10.81
2023-02-25T18:42:55.023Z,10.83
2023-02-25T18:45:27.552Z,10.86
2023-02-25T18:47:57.424Z,10.90
2023-02-25T18:50:26.050Z,10.95
2023-02-25T18:52:55.409Z,11.02
2023-02-25T18:55:26.444Z,11.10
2023-02-25T18:57:55.420Z,11.15
2023-02-25T19:00:27.812Z,11.21
2023-02-25T19:03:00.165Z,11.30
2023-02-25T19:05:29.845Z,11.34
2023-02-25T19:07:58.917Z,11.41
2023-02-25T19:10:30.971Z,11.46
2023-02-25T19:13:03.635Z,11.51
2023-02-25T19:15:39.443Z,11.54
2023-02-25T19:18:07.760Z,11.62
2023-02-25T19:24:17.951Z,11.69
2023-02-25T19:26:52.572Z,11.74
2023-02-25T19:29:21.391Z,11.77
2023-02-25T19:31:52.166Z,11.79
2023-02-25T19:34:20.927Z,11.81
2023-02-25T19:36:52.157Z,11.82
2023-02-25T19:39:20.608Z,11.82
2023-02-25T19:41:49.058Z,11.83
2023-02-25T19:44:17.424Z,11.87
2023-02-25T19:46:46.078Z,11.88
2023-02-25T19:49:15.924Z,11.89
2023-02-25T19:51:44.064Z,11.87
2023-02-25T19:54:12.181Z,11.84
2023-02-25T19:56:40.700Z,11.78
2023-02-25T19:59:12.278Z,11.71
2023-02-25T20:01:41.418Z,11.62
2023-02-25T20:04:10.877Z,11.51
2023-02-25T20:06:40.690Z,11.40
2023-02-25T20:09:10.765Z,11.29
2023-02-25T20:11:39.514Z,11.19
2023-02-25T20:14:08.289Z,11.09
2023-02-25T20:16:36.911Z,10.95
2023-02-25T20:19:05.335Z,10.88
2023-02-25T20:21:33.769Z,10.75
2023-02-25T20:24:04.973Z,10.67
2023-02-25T20:26:33.469Z,10.58
2023-02-25T20:29:03.163Z,10.51
2023-02-25T20:31:32.744Z,10.44
2023-02-25T20:34:05.350Z,10.36
2023-02-25T20:36:39.966Z,10.32
2023-02-25T20:39:29.952Z,10.26
2023-02-25T20:41:59.241Z,10.21
2023-02-25T20:44:28.277Z,10.20
2023-02-25T20:46:58.069Z,10.20
2023-02-25T20:49:26.859Z,10.23
2023-02-25T20:51:56.701Z,10.28
2023-02-25T20:54:26.577Z,10.30
2023-02-25T20:56:54.650Z,10.38
2023-02-25T20:59:23.424Z,10.45
2023-02-25T21:01:52.023Z,10.53
2023-02-25T21:04:20.205Z,10.61
2023-02-25T21:06:48.670Z,10.68
2023-02-25T21:09:17.164Z,10.72
2023-02-25T21:11:48.104Z,10.76
2023-02-25T21:14:16.253Z,10.83
2023-02-25T21:16:44.912Z,10.85
2023-02-25T21:19:13.408Z,10.81
2023-02-25T21:21:41.567Z,10.77
2023-02-25T21:24:12.677Z,10.71
2023-02-25T21:26:40.844Z,10.65
2023-02-25T21:29:11.335Z,10.54
2023-02-25T21:31:39.840Z,10.48
2023-02-25T21:34:13.079Z,10.47
2023-02-25T21:36:42.074Z,10.43
2023-02-25T21:39:12.554Z,10.39
2023-02-25T21:41:44.429Z,10.37
2023-02-25T21:44:14.860Z,10.35
2023-02-25T21:46:42.900Z,10.36
2023-02-25T21:49:11.773Z,10.37
2023-02-25T21:51:40.369Z,10.39
2023-02-25T21:54:08.957Z,10.40
2023-02-25T21:56:36.943Z,10.39
2023-02-25T21:59:06.732Z,10.40
2023-02-25T22:01:38.890Z,10.41
2023-02-25T22:04:09.866Z,10.38
2023-02-25T22:06:38.288Z,10.34
2023-02-25T22:09:07.305Z,10.29
2023-02-25T22:11:37.580Z,10.23
2023-02-25T22:14:07.581Z,10.20
2023-02-25T22:16:40.281Z,10.15
2023-02-25T22:19:08.704Z,10.12
2023-02-25T22:21:37.817Z,10.09
2023-02-25T22:24:06.810Z,10.06
2023-02-25T22:26:36.435Z,10.07
2023-02-25T22:29:06.918Z,10.08
2023-02-25T22:31:36.692Z,10.07
2023-02-25T22:34:05.433Z,10.05
2023-02-25T22:36:33.946Z,10.02
2023-02-25T22:39:05.827Z,9.99
2023-02-25T22:41:33.980Z,9.97
2023-02-25T22:44:03.401Z,9.95
2023-02-25T22:46:33.843Z,9.91
2023-02-25T22:49:04.847Z,9.90
2023-02-25T22:51:35.194Z,9.87
2023-02-25T22:54:05.013Z,9.84
2023-02-25T22:56:33.408Z,9.80
2023-02-25T22:59:02.175Z,9.76
2023-02-25T23:01:30.195Z,9.74
2023-02-25T23:04:02.039Z,9.72
2023-02-25T23:06:48.616Z,9.68
2023-02-25T23:09:18.127Z,9.64
2023-02-25T23:11:46.296Z,9.62
2023-02-25T23:14:15.468Z,9.60
2023-02-25T23:16:46.525Z,9.55
2023-02-25T23:19:17.249Z,9.53
2023-02-25T23:21:47.279Z,9.51
2023-02-25T23:24:18.721Z,9.48
2023-02-25T23:26:50.321Z,9.43
2023-02-25T23:29:18.675Z,9.40
2023-02-25T23:31:48.429Z,9.37
2023-02-25T23:34:19.906Z,9.33
2023-02-25T23:36:49.626Z,9.31
2023-02-25T23:39:18.400Z,9.31
2023-02-25T23:44:15.794Z,9.29
2023-02-25T23:46:45.206Z,9.30
2023-02-25T23:49:15.734Z,9.29
2023-02-25T23:51:45.534Z,9.26
2023-02-25T23:54:17.172Z,9.24
2023-02-25T23:56:45.200Z,9.26
2023-02-25T23:59:13.610Z,9.23
